Hat Yai International Airport
VTSS : now visible

Airfield :











YOU CAN JOIN US ON...

 
LOGIN :

Register | Disclaimer

   EN    FR    IT 

 









Legend :    VFR   Marginal VFR   IFR   Intensive IFR   Very Intensive IFR
Visi :
Ceiling :
>= 8 km
>= 3000ft
5 to 8 km
1000 to 3000 ft
1500m to 5 km
500 to 1000 ft
800 to 1500m
200 to 500 ft
< 800m
< 200 ft
Symbols :   Thunderstorms  Fog  Heavy snow  Heavy precipitations  Wind > 20 kt






- Airport Elevation : 90 ft
- IATA code : HDY


VTSS - Hat Yai International

CURRENT METAR :
  • 191500Z 06006KT 8000 -TSRA SCT006 FEW016CB SCT018 BKN025 25/25 Q1012 NOSIG

EXPIRED METARs :
  • 191430Z 06008KT 050V110 9999 FEW010 FEW018CB SCT020 BKN100 25/24 Q1012 NOSIG
  • 191400Z 06012KT 9999 FEW010 FEW018CB SCT020 BKN100 26/25 Q1011 NOSIG
  • 191330Z 28004KT 9999 FEW018CB SCT020 BKN100 27/25 Q1011 NOSIG
  • 191300Z VRB02KT 9999 FEW020 BKN100 27/25 Q1010 NOSIG
  • 191230Z 05003KT 270V080 9999 FEW020 BKN100 27/25 Q1010 NOSIG

TAF TAF VTSS
Valid from the 19 at 12:00 until the 20 at 12:00 UTC


191100Z 1912/2012 06005KT 9999 FEW020 BKN100
TEMPO 1912/1918 5000 RA SCT015 BKN100
TEMPO 1920/2002 5000 RA SCT015 BKN100



MET'MAP, your aeronautical weather chart ! - Copyright ORBIFLY December 2007 - Disclaimer

ORBIFLY MET'MAP TEAM :

Programming & Development : Alexandra Zaïnal
Concept & Development : Baudouin d'Aumeries
Co-Development & Prog : Marc-Olivier Méhu
Technical & hardware support : Manuel Goepfert

Contact : metmap@orbifly.com




SOURCES & CREDITS :

   NOAA       Earth
Advisory